sensor_id;sensor_type;location;lat;lon;timestamp;pressure;altitude;pressure_sealevel;temperature;humidity
28935;BME280;16044;52.726;-2.108;2023-02-25T00:01:35;100748.28;;;3.37;82.12
28935;BME280;16044;52.726;-2.108;2023-02-25T00:04:02;100744.88;;;3.35;82.18
28935;BME280;16044;52.726;-2.108;2023-02-25T00:06:29;100742.19;;;3.35;82.37
28935;BME280;16044;52.726;-2.108;2023-02-25T00:08:57;100755.59;;;3.35;81.86
28935;BME280;16044;52.726;-2.108;2023-02-25T00:11:24;100745.84;;;3.34;82.23
28935;BME280;16044;52.726;-2.108;2023-02-25T00:13:52;100759.63;;;3.29;82.51
28935;BME280;16044;52.726;-2.108;2023-02-25T00:16:20;100750.97;;;3.25;82.59
28935;BME280;16044;52.726;-2.108;2023-02-25T00:18:57;100758.28;;;3.23;82.80
28935;BME280;16044;52.726;-2.108;2023-02-25T00:21:24;100744.50;;;3.17;82.98
28935;BME280;16044;52.726;-2.108;2023-02-25T00:23:51;100751.22;;;3.11;82.95
28935;BME280;16044;52.726;-2.108;2023-02-25T00:26:19;100750.09;;;3.02;83.61
28935;BME280;16044;52.726;-2.108;2023-02-25T00:28:47;100748.75;;;2.97;83.60
28935;BME280;16044;52.726;-2.108;2023-02-25T00:31:19;100756.44;;;2.90;83.96
28935;BME280;16044;52.726;-2.108;2023-02-25T00:33:48;100761.06;;;2.88;84.34
28935;BME280;16044;52.726;-2.108;2023-02-25T00:36:18;100766.94;;;2.93;84.61
28935;BME280;16044;52.726;-2.108;2023-02-25T00:38:52;100782.38;;;2.89;85.63
28935;BME280;16044;52.726;-2.108;2023-02-25T00:41:23;100767.78;;;2.93;85.42
28935;BME280;16044;52.726;-2.108;2023-02-25T00:43:58;100761.19;;;2.86;85.70
28935;BME280;16044;52.726;-2.108;2023-02-25T00:46:28;100766.06;;;2.92;85.18
28935;BME280;16044;52.726;-2.108;2023-02-25T00:48:56;100755.59;;;2.89;84.88
28935;BME280;16044;52.726;-2.108;2023-02-25T00:51:27;100763.13;;;2.84;84.79
28935;BME280;16044;52.726;-2.108;2023-02-25T00:53:55;100756.78;;;2.85;84.86
28935;BME280;16044;52.726;-2.108;2023-02-25T00:56:24;100760.56;;;2.83;84.84
28935;BME280;16044;52.726;-2.108;2023-02-25T00:58:52;100752.66;;;2.81;84.85
28935;BME280;16044;52.726;-2.108;2023-02-25T01:01:22;100762.13;;;2.74;84.90
28935;BME280;16044;52.726;-2.108;2023-02-25T01:03:55;100766.53;;;2.75;85.09
28935;BME280;16044;52.726;-2.108;2023-02-25T01:06:24;100756.19;;;2.70;85.25
28935;BME280;16044;52.726;-2.108;2023-02-25T01:08:52;100765.41;;;2.66;85.23
28935;BME280;16044;52.726;-2.108;2023-02-25T01:11:24;100764.81;;;2.63;85.05
28935;BME280;16044;52.726;-2.108;2023-02-25T01:13:58;100762.69;;;2.55;85.27
28935;BME280;16044;52.726;-2.108;2023-02-25T01:16:29;100773.03;;;2.48;85.54
28935;BME280;16044;52.726;-2.108;2023-02-25T01:19:00;100766.44;;;2.41;85.93
28935;BME280;16044;52.726;-2.108;2023-02-25T01:21:34;100783.59;;;2.39;86.10
28935;BME280;16044;52.726;-2.108;2023-02-25T01:24:14;100769.09;;;2.30;86.28
28935;BME280;16044;52.726;-2.108;2023-02-25T01:26:44;100774.06;;;2.23;86.86
28935;BME280;16044;52.726;-2.108;2023-02-25T01:29:26;100770.97;;;2.17;87.15
28935;BME280;16044;52.726;-2.108;2023-02-25T01:32:02;100775.97;;;2.10;87.07
28935;BME280;16044;52.726;-2.108;2023-02-25T01:34:29;100775.44;;;2.05;86.80
28935;BME280;16044;52.726;-2.108;2023-02-25T01:36:57;100771.41;;;1.99;87.11
28935;BME280;16044;52.726;-2.108;2023-02-25T01:39:25;100779.88;;;1.93;87.11
28935;BME280;16044;52.726;-2.108;2023-02-25T01:41:55;100768.16;;;1.83;87.79
28935;BME280;16044;52.726;-2.108;2023-02-25T01:46:57;100772.47;;;1.72;88.41
28935;BME280;16044;52.726;-2.108;2023-02-25T01:49:38;100764.28;;;1.63;88.72
28935;BME280;16044;52.726;-2.108;2023-02-25T01:52:19;100768.03;;;1.60;88.39
28935;BME280;16044;52.726;-2.108;2023-02-25T01:54:52;100770.94;;;1.57;88.60
28935;BME280;16044;52.726;-2.108;2023-02-25T01:57:22;100764.09;;;1.53;88.44
28935;BME280;16044;52.726;-2.108;2023-02-25T01:59:51;100765.28;;;1.49;88.17
28935;BME280;16044;52.726;-2.108;2023-02-25T02:02:21;100773.75;;;1.43;88.54
28935;BME280;16044;52.726;-2.108;2023-02-25T02:04:51;100775.88;;;1.38;89.32
28935;BME280;16044;52.726;-2.108;2023-02-25T02:07:20;100775.03;;;1.37;89.49
28935;BME280;16044;52.726;-2.108;2023-02-25T02:09:48;100777.72;;;1.37;89.30
28935;BME280;16044;52.726;-2.108;2023-02-25T02:12:29;100773.44;;;1.34;89.69
28935;BME280;16044;52.726;-2.108;2023-02-25T02:14:59;100766.28;;;1.35;90.19
28935;BME280;16044;52.726;-2.108;2023-02-25T02:17:32;100761.69;;;1.37;90.68
28935;BME280;16044;52.726;-2.108;2023-02-25T02:20:10;100769.06;;;1.33;91.96
28935;BME280;16044;52.726;-2.108;2023-02-25T02:37:06;100777.19;;;1.19;91.34
28935;BME280;16044;52.726;-2.108;2023-02-25T02:40:04;100782.03;;;1.14;91.60
28935;BME280;16044;52.726;-2.108;2023-02-25T02:46:17;100799.84;;;1.13;92.02
28935;BME280;16044;52.726;-2.108;2023-02-25T02:48:52;100786.38;;;1.15;92.41
28935;BME280;16044;52.726;-2.108;2023-02-25T02:51:29;100791.53;;;1.18;92.56
28935;BME280;16044;52.726;-2.108;2023-02-25T02:54:03;100783.63;;;1.16;92.63
28935;BME280;16044;52.726;-2.108;2023-02-25T02:56:33;100792.47;;;1.17;92.92
28935;BME280;16044;52.726;-2.108;2023-02-25T02:59:04;100791.31;;;1.21;92.95
28935;BME280;16044;52.726;-2.108;2023-02-25T03:01:38;100798.16;;;1.25;93.41
28935;BME280;16044;52.726;-2.108;2023-02-25T03:04:11;100792.56;;;1.28;94.17
28935;BME280;16044;52.726;-2.108;2023-02-25T03:06:45;100787.66;;;1.35;93.72
28935;BME280;16044;52.726;-2.108;2023-02-25T03:09:21;100786.56;;;1.38;93.59
28935;BME280;16044;52.726;-2.108;2023-02-25T03:11:51;100783.25;;;1.47;93.56
28935;BME280;16044;52.726;-2.108;2023-02-25T03:14:18;100794.91;;;1.46;93.72
28935;BME280;16044;52.726;-2.108;2023-02-25T03:17:09;100784.97;;;1.48;93.44
28935;BME280;16044;52.726;-2.108;2023-02-25T03:19:49;100783.34;;;1.45;93.45
28935;BME280;16044;52.726;-2.108;2023-02-25T03:22:23;100787.75;;;1.46;93.58
28935;BME280;16044;52.726;-2.108;2023-02-25T03:25:13;100789.97;;;1.40;94.13
28935;BME280;16044;52.726;-2.108;2023-02-25T03:27:46;100789.34;;;1.36;93.81
28935;BME280;16044;52.726;-2.108;2023-02-25T03:30:23;100783.59;;;1.29;93.76
28935;BME280;16044;52.726;-2.108;2023-02-25T03:33:02;100785.75;;;1.24;93.85
28935;BME280;16044;52.726;-2.108;2023-02-25T03:35:34;100795.78;;;1.21;93.97
28935;BME280;16044;52.726;-2.108;2023-02-25T03:38:06;100794.63;;;1.12;94.51
28935;BME280;16044;52.726;-2.108;2023-02-25T03:40:36;100791.44;;;1.07;94.70
28935;BME280;16044;52.726;-2.108;2023-02-25T03:43:09;100797.09;;;1.02;94.87
28935;BME280;16044;52.726;-2.108;2023-02-25T03:45:41;100801.06;;;0.96;94.99
28935;BME280;16044;52.726;-2.108;2023-02-25T03:48:11;100799.53;;;0.92;94.70
28935;BME280;16044;52.726;-2.108;2023-02-25T03:50:43;100810.44;;;0.89;95.38
28935;BME280;16044;52.726;-2.108;2023-02-25T03:53:13;100802.84;;;0.83;95.71
28935;BME280;16044;52.726;-2.108;2023-02-25T03:55:40;100798.47;;;0.82;95.81
28935;BME280;16044;52.726;-2.108;2023-02-25T03:58:08;100803.06;;;0.80;95.83
28935;BME280;16044;52.726;-2.108;2023-02-25T04:00:36;100814.94;;;0.76;96.05
28935;BME280;16044;52.726;-2.108;2023-02-25T04:03:03;100808.84;;;0.74;95.64
28935;BME280;16044;52.726;-2.108;2023-02-25T04:05:31;100822.94;;;0.76;95.27
28935;BME280;16044;52.726;-2.108;2023-02-25T04:07:58;100823.13;;;0.73;95.40
28935;BME280;16044;52.726;-2.108;2023-02-25T04:10:25;100818.97;;;0.69;95.44
28935;BME280;16044;52.726;-2.108;2023-02-25T04:12:53;100806.69;;;0.66;95.79
28935;BME280;16044;52.726;-2.108;2023-02-25T04:15:21;100822.81;;;0.65;95.79
28935;BME280;16044;52.726;-2.108;2023-02-25T04:17:48;100818.50;;;0.62;95.95
28935;BME280;16044;52.726;-2.108;2023-02-25T04:20:15;100827.59;;;0.60;95.53
28935;BME280;16044;52.726;-2.108;2023-02-25T04:22:42;100818.09;;;0.55;95.55
28935;BME280;16044;52.726;-2.108;2023-02-25T04:25:09;100830.69;;;0.53;95.30
28935;BME280;16044;52.726;-2.108;2023-02-25T04:27:36;100828.31;;;0.49;95.49
28935;BME280;16044;52.726;-2.108;2023-02-25T04:30:04;100830.22;;;0.47;95.87
28935;BME280;16044;52.726;-2.108;2023-02-25T04:32:31;100835.78;;;0.44;96.08
28935;BME280;16044;52.726;-2.108;2023-02-25T04:34:58;100843.78;;;0.44;96.72
28935;BME280;16044;52.726;-2.108;2023-02-25T04:37:29;100837.56;;;0.43;96.87
28935;BME280;16044;52.726;-2.108;2023-02-25T04:39:56;100842.91;;;0.43;96.46
28935;BME280;16044;52.726;-2.108;2023-02-25T04:42:23;100843.97;;;0.41;96.23
28935;BME280;16044;52.726;-2.108;2023-02-25T04:44:50;100844.19;;;0.37;96.47
28935;BME280;16044;52.726;-2.108;2023-02-25T04:47:17;100847.06;;;0.34;96.55
28935;BME280;16044;52.726;-2.108;2023-02-25T04:49:44;100848.84;;;0.34;96.40
28935;BME280;16044;52.726;-2.108;2023-02-25T04:52:15;100845.44;;;0.32;96.54
28935;BME280;16044;52.726;-2.108;2023-02-25T04:54:41;100848.22;;;0.30;96.81
28935;BME280;16044;52.726;-2.108;2023-02-25T04:57:10;100848.22;;;0.30;96.95
28935;BME280;16044;52.726;-2.108;2023-02-25T04:59:38;100864.00;;;0.33;96.93
28935;BME280;16044;52.726;-2.108;2023-02-25T05:02:06;100857.63;;;0.36;97.20
28935;BME280;16044;52.726;-2.108;2023-02-25T05:04:37;100853.81;;;0.40;97.41
28935;BME280;16044;52.726;-2.108;2023-02-25T05:07:05;100859.13;;;0.40;97.62
28935;BME280;16044;52.726;-2.108;2023-02-25T05:09:33;100863.22;;;0.46;98.17
28935;BME280;16044;52.726;-2.108;2023-02-25T05:12:01;100864.72;;;0.50;97.92
28935;BME280;16044;52.726;-2.108;2023-02-25T05:14:28;100865.13;;;0.56;98.27
28935;BME280;16044;52.726;-2.108;2023-02-25T05:16:58;100863.03;;;0.62;98.37
28935;BME280;16044;52.726;-2.108;2023-02-25T05:19:25;100866.25;;;0.67;98.40
28935;BME280;16044;52.726;-2.108;2023-02-25T05:21:52;100855.16;;;0.73;98.21
28935;BME280;16044;52.726;-2.108;2023-02-25T05:24:19;100846.94;;;0.76;98.29
28935;BME280;16044;52.726;-2.108;2023-02-25T05:26:49;100848.34;;;0.82;98.26
28935;BME280;16044;52.726;-2.108;2023-02-25T05:29:17;100848.00;;;0.86;98.17
28935;BME280;16044;52.726;-2.108;2023-02-25T05:31:44;100851.22;;;0.91;98.09
28935;BME280;16044;52.726;-2.108;2023-02-25T05:34:11;100858.06;;;0.95;98.09
28935;BME280;16044;52.726;-2.108;2023-02-25T05:36:39;100856.97;;;0.98;98.06
28935;BME280;16044;52.726;-2.108;2023-02-25T05:39:06;100860.28;;;1.02;98.09
28935;BME280;16044;52.726;-2.108;2023-02-25T05:41:33;100860.09;;;1.05;98.10
28935;BME280;16044;52.726;-2.108;2023-02-25T05:44:00;100860.94;;;1.05;98.63
28935;BME280;16044;52.726;-2.108;2023-02-25T05:46:27;100872.91;;;1.12;98.22
28935;BME280;16044;52.726;-2.108;2023-02-25T05:48:54;100871.94;;;1.13;98.23
28935;BME280;16044;52.726;-2.108;2023-02-25T05:51:22;100873.31;;;1.19;98.07
28935;BME280;16044;52.726;-2.108;2023-02-25T05:53:52;100884.00;;;1.19;97.89
28935;BME280;16044;52.726;-2.108;2023-02-25T05:56:21;100886.56;;;1.21;97.85
28935;BME280;16044;52.726;-2.108;2023-02-25T05:58:57;100885.53;;;1.23;97.57
28935;BME280;16044;52.726;-2.108;2023-02-25T06:01:25;100890.13;;;1.21;97.53
28935;BME280;16044;52.726;-2.108;2023-02-25T06:03:58;100889.56;;;1.16;97.75
28935;BME280;16044;52.726;-2.108;2023-02-25T06:06:27;100884.22;;;1.16;97.25
28935;BME280;16044;52.726;-2.108;2023-02-25T06:08:56;100885.06;;;1.16;97.15
28935;BME280;16044;52.726;-2.108;2023-02-25T06:11:25;100878.34;;;1.11;97.69
28935;BME280;16044;52.726;-2.108;2023-02-25T06:13:56;100881.56;;;1.16;97.38
28935;BME280;16044;52.726;-2.108;2023-02-25T06:16:25;100882.31;;;1.18;97.36
28935;BME280;16044;52.726;-2.108;2023-02-25T06:18:58;100894.69;;;1.19;97.21
28935;BME280;16044;52.726;-2.108;2023-02-25T06:21:26;100895.75;;;1.16;97.53
28935;BME280;16044;52.726;-2.108;2023-02-25T06:23:53;100890.31;;;1.18;97.48
28935;BME280;16044;52.726;-2.108;2023-02-25T06:26:20;100896.84;;;1.14;97.63
28935;BME280;16044;52.726;-2.108;2023-02-25T06:28:49;100896.84;;;1.14;97.63
28935;BME280;16044;52.726;-2.108;2023-02-25T06:31:18;100907.28;;;1.17;97.28
28935;BME280;16044;52.726;-2.108;2023-02-25T06:33:45;100907.72;;;1.11;97.72
28935;BME280;16044;52.726;-2.108;2023-02-25T06:36:13;100918.28;;;1.12;97.25
28935;BME280;16044;52.726;-2.108;2023-02-25T06:38:41;100920.50;;;1.06;97.05
28935;BME280;16044;52.726;-2.108;2023-02-25T06:41:12;100917.22;;;1.02;96.65
28935;BME280;16044;52.726;-2.108;2023-02-25T06:43:44;100917.53;;;0.97;96.78
28935;BME280;16044;52.726;-2.108;2023-02-25T06:46:13;100923.94;;;0.95;97.07
28935;BME280;16044;52.726;-2.108;2023-02-25T06:48:40;100926.91;;;0.90;97.39
28935;BME280;16044;52.726;-2.108;2023-02-25T06:51:07;100938.44;;;0.91;97.78
28935;BME280;16044;52.726;-2.108;2023-02-25T06:53:39;100933.13;;;0.91;98.12
28935;BME280;16044;52.726;-2.108;2023-02-25T06:56:10;100924.47;;;0.87;98.80
28935;BME280;16044;52.726;-2.108;2023-02-25T06:58:38;100933.72;;;0.82;99.21
28935;BME280;16044;52.726;-2.108;2023-02-25T07:01:10;100934.91;;;0.90;98.70
28935;BME280;16044;52.726;-2.108;2023-02-25T07:03:39;100941.88;;;0.93;98.61
28935;BME280;16044;52.726;-2.108;2023-02-25T07:06:07;100935.47;;;0.95;98.56
28935;BME280;16044;52.726;-2.108;2023-02-25T07:08:34;100938.13;;;0.95;98.55
28935;BME280;16044;52.726;-2.108;2023-02-25T07:11:12;100938.69;;;1.01;98.57
28935;BME280;16044;52.726;-2.108;2023-02-25T07:13:48;100929.47;;;0.92;99.28
28935;BME280;16044;52.726;-2.108;2023-02-25T07:16:16;100932.88;;;0.94;98.98
28935;BME280;16044;52.726;-2.108;2023-02-25T07:18:44;100938.22;;;0.94;99.16
28935;BME280;16044;52.726;-2.108;2023-02-25T07:21:11;100931.63;;;1.00;98.91
28935;BME280;16044;52.726;-2.108;2023-02-25T07:23:39;100937.81;;;1.00;98.68
28935;BME280;16044;52.726;-2.108;2023-02-25T07:26:10;100945.72;;;1.02;99.00
28935;BME280;16044;52.726;-2.108;2023-02-25T07:28:38;100944.88;;;1.01;98.96
28935;BME280;16044;52.726;-2.108;2023-02-25T07:31:14;100953.63;;;1.03;98.70
28935;BME280;16044;52.726;-2.108;2023-02-25T07:33:48;100951.94;;;1.02;98.37
28935;BME280;16044;52.726;-2.108;2023-02-25T07:36:15;100958.13;;;1.03;98.01
28935;BME280;16044;52.726;-2.108;2023-02-25T07:38:43;100953.81;;;1.00;97.78
28935;BME280;16044;52.726;-2.108;2023-02-25T07:41:13;100958.31;;;1.00;97.97
28935;BME280;16044;52.726;-2.108;2023-02-25T07:43:41;100962.06;;;0.97;98.36
28935;BME280;16044;52.726;-2.108;2023-02-25T07:46:09;100964.72;;;0.97;98.46
28935;BME280;16044;52.726;-2.108;2023-02-25T07:48:39;100968.66;;;0.91;98.87
28935;BME280;16044;52.726;-2.108;2023-02-25T07:51:14;100956.91;;;0.94;99.26
28935;BME280;16044;52.726;-2.108;2023-02-25T07:53:45;100960.84;;;0.88;99.14
28935;BME280;16044;52.726;-2.108;2023-02-25T07:56:13;100965.13;;;0.91;99.02
28935;BME280;16044;52.726;-2.108;2023-02-25T07:58:40;100967.16;;;0.87;99.07
28935;BME280;16044;52.726;-2.108;2023-02-25T08:01:08;100970.78;;;0.86;99.22
28935;BME280;16044;52.726;-2.108;2023-02-25T08:03:36;100981.25;;;0.89;99.31
28935;BME280;16044;52.726;-2.108;2023-02-25T08:06:04;100979.63;;;0.87;99.33
28935;BME280;16044;52.726;-2.108;2023-02-25T08:08:35;100989.03;;;0.92;99.35
28935;BME280;16044;52.726;-2.108;2023-02-25T08:11:10;100987.34;;;0.91;99.47
28935;BME280;16044;52.726;-2.108;2023-02-25T08:13:38;100986.94;;;0.97;99.72
28935;BME280;16044;52.726;-2.108;2023-02-25T08:16:09;100979.28;;;1.19;98.97
28935;BME280;16044;52.726;-2.108;2023-02-25T08:18:37;100978.13;;;1.35;98.73
28935;BME280;16044;52.726;-2.108;2023-02-25T08:21:09;100979.94;;;1.61;98.42
28935;BME280;16044;52.726;-2.108;2023-02-25T08:23:36;100993.41;;;1.85;97.95
28935;BME280;16044;52.726;-2.108;2023-02-25T08:26:04;101001.34;;;1.99;97.67
28935;BME280;16044;52.726;-2.108;2023-02-25T08:28:32;101001.63;;;2.07;97.11
28935;BME280;16044;52.726;-2.108;2023-02-25T08:31:03;100998.50;;;2.13;96.41
28935;BME280;16044;52.726;-2.108;2023-02-25T08:33:33;100988.34;;;2.19;96.28
28935;BME280;16044;52.726;-2.108;2023-02-25T08:36:12;100992.50;;;2.23;96.18
28935;BME280;16044;52.726;-2.108;2023-02-25T08:38:41;100999.97;;;2.30;95.75
28935;BME280;16044;52.726;-2.108;2023-02-25T08:41:08;101001.59;;;2.33;95.18
28935;BME280;16044;52.726;-2.108;2023-02-25T08:43:36;101004.03;;;2.36;95.21
28935;BME280;16044;52.726;-2.108;2023-02-25T08:46:03;100997.63;;;2.39;95.19
28935;BME280;16044;52.726;-2.108;2023-02-25T08:48:33;100995.91;;;2.38;95.37
28935;BME280;16044;52.726;-2.108;2023-02-25T08:51:02;100998.25;;;2.42;95.37
28935;BME280;16044;52.726;-2.108;2023-02-25T08:53:37;100988.19;;;2.46;95.43
28935;BME280;16044;52.726;-2.108;2023-02-25T08:56:11;100998.53;;;2.50;95.05
28935;BME280;16044;52.726;-2.108;2023-02-25T08:58:39;100995.03;;;2.50;95.26
28935;BME280;16044;52.726;-2.108;2023-02-25T09:01:13;100990.06;;;2.57;95.20
28935;BME280;16044;52.726;-2.108;2023-02-25T09:03:44;100998.09;;;2.57;95.34
28935;BME280;16044;52.726;-2.108;2023-02-25T09:06:24;100985.69;;;2.56;95.39
28935;BME280;16044;52.726;-2.108;2023-02-25T09:08:55;100994.72;;;2.66;94.96
28935;BME280;16044;52.726;-2.108;2023-02-25T09:11:24;100992.47;;;2.72;94.99
28935;BME280;16044;52.726;-2.108;2023-02-25T09:13:52;100997.47;;;2.77;94.59
28935;BME280;16044;52.726;-2.108;2023-02-25T09:16:19;100998.84;;;2.83;94.26
28935;BME280;16044;52.726;-2.108;2023-02-25T09:18:48;100997.41;;;2.90;93.88
28935;BME280;16044;52.726;-2.108;2023-02-25T09:21:18;100998.03;;;2.93;93.67
28935;BME280;16044;52.726;-2.108;2023-02-25T09:23:45;101001.34;;;2.97;93.87
28935;BME280;16044;52.726;-2.108;2023-02-25T09:26:13;100999.41;;;2.99;93.55
28935;BME280;16044;52.726;-2.108;2023-02-25T09:28:40;101004.81;;;3.10;93.20
28935;BME280;16044;52.726;-2.108;2023-02-25T09:31:07;101002.63;;;3.16;92.53
28935;BME280;16044;52.726;-2.108;2023-02-25T09:33:35;101009.69;;;3.17;92.13
28935;BME280;16044;52.726;-2.108;2023-02-25T09:36:21;101004.75;;;3.23;92.03
28935;BME280;16044;52.726;-2.108;2023-02-25T09:38:49;101010.69;;;3.27;90.68
28935;BME280;16044;52.726;-2.108;2023-02-25T09:44:04;101020.34;;;3.29;89.76
28935;BME280;16044;52.726;-2.108;2023-02-25T09:46:37;101027.41;;;3.30;89.84
28935;BME280;16044;52.726;-2.108;2023-02-25T09:49:28;101023.25;;;3.26;90.27
28935;BME280;16044;52.726;-2.108;2023-02-25T09:52:06;101031.56;;;3.35;89.84
28935;BME280;16044;52.726;-2.108;2023-02-25T09:54:42;101035.72;;;3.39;89.62
28935;BME280;16044;52.726;-2.108;2023-02-25T09:57:16;101031.09;;;3.41;89.19
28935;BME280;16044;52.726;-2.108;2023-02-25T09:59:46;101029.66;;;3.48;89.38
28935;BME280;16044;52.726;-2.108;2023-02-25T10:10:50;101030.78;;;3.68;88.68
28935;BME280;16044;52.726;-2.108;2023-02-25T10:16:38;101023.28;;;3.84;88.61
28935;BME280;16044;52.726;-2.108;2023-02-25T10:22:29;101020.84;;;3.93;87.03
28935;BME280;16044;52.726;-2.108;2023-02-25T10:25:22;101016.19;;;3.95;86.15
28935;BME280;16044;52.726;-2.108;2023-02-25T10:28:03;101023.41;;;4.05;84.95
28935;BME280;16044;52.726;-2.108;2023-02-25T10:33:18;101032.91;;;4.21;85.76
28935;BME280;16044;52.726;-2.108;2023-02-25T10:35:51;101035.84;;;4.29;85.03
28935;BME280;16044;52.726;-2.108;2023-02-25T10:38:45;101039.13;;;4.33;84.01
28935;BME280;16044;52.726;-2.108;2023-02-25T10:41:13;101038.50;;;4.40;83.86
28935;BME280;16044;52.726;-2.108;2023-02-25T10:43:41;101034.88;;;4.41;83.63
28935;BME280;16044;52.726;-2.108;2023-02-25T10:46:15;101048.06;;;4.44;83.13
28935;BME280;16044;52.726;-2.108;2023-02-25T10:48:55;101039.63;;;4.49;82.05
28935;BME280;16044;52.726;-2.108;2023-02-25T10:51:24;101032.66;;;4.58;82.96
28935;BME280;16044;52.726;-2.108;2023-02-25T10:56:26;101038.94;;;4.79;82.31
28935;BME280;16044;52.726;-2.108;2023-02-25T10:59:02;101039.66;;;4.93;82.88
28935;BME280;16044;52.726;-2.108;2023-02-25T11:01:35;101038.16;;;5.00;81.76
28935;BME280;16044;52.726;-2.108;2023-02-25T11:04:13;101033.00;;;5.08;80.16
28935;BME280;16044;52.726;-2.108;2023-02-25T11:06:42;101035.44;;;5.11;79.54
28935;BME280;16044;52.726;-2.108;2023-02-25T11:11:52;101033.97;;;5.18;80.50
28935;BME280;16044;52.726;-2.108;2023-02-25T11:14:29;101035.41;;;5.22;80.78
28935;BME280;16044;52.726;-2.108;2023-02-25T11:17:03;101035.03;;;5.16;80.37
28935;BME280;16044;52.726;-2.108;2023-02-25T11:19:46;101041.94;;;5.08;79.58
28935;BME280;16044;52.726;-2.108;2023-02-25T11:22:27;101030.59;;;5.05;80.31
28935;BME280;16044;52.726;-2.108;2023-02-25T11:25:00;101041.47;;;5.03;80.52
28935;BME280;16044;52.726;-2.108;2023-02-25T11:27:41;101042.06;;;5.07;80.74
28935;BME280;16044;52.726;-2.108;2023-02-25T11:32:43;101044.88;;;5.05;78.62
28935;BME280;16044;52.726;-2.108;2023-02-25T11:35:19;101051.34;;;5.03;77.42
28935;BME280;16044;52.726;-2.108;2023-02-25T11:37:50;101061.97;;;4.93;79.62
28935;BME280;16044;52.726;-2.108;2023-02-25T11:40:40;101061.16;;;4.81;82.59
28935;BME280;16044;52.726;-2.108;2023-02-25T11:43:20;101054.59;;;4.74;84.04
28935;BME280;16044;52.726;-2.108;2023-02-25T11:57:16;101043.31;;;5.03;84.58
28935;BME280;16044;52.726;-2.108;2023-02-25T12:00:08;101025.41;;;5.13;83.64
28935;BME280;16044;52.726;-2.108;2023-02-25T12:11:36;101015.72;;;5.85;81.28
28935;BME280;16044;52.726;-2.108;2023-02-25T12:17:46;101008.91;;;6.02;76.11
28935;BME280;16044;52.726;-2.108;2023-02-25T12:23:48;101014.16;;;6.03;73.12
28935;BME280;16044;52.726;-2.108;2023-02-25T12:26:38;100999.03;;;6.12;74.08
28935;BME280;16044;52.726;-2.108;2023-02-25T12:35:48;101008.91;;;6.42;73.16
28935;BME280;16044;52.726;-2.108;2023-02-25T12:56:27;101013.81;;;6.68;65.03
28935;BME280;16044;52.726;-2.108;2023-02-25T13:11:26;101006.13;;;6.54;63.79
28935;BME280;16044;52.726;-2.108;2023-02-25T13:14:29;100994.50;;;6.53;64.39
28935;BME280;16044;52.726;-2.108;2023-02-25T13:17:36;101006.41;;;6.51;64.63
28935;BME280;16044;52.726;-2.108;2023-02-25T13:20:34;101012.38;;;6.54;63.62
28935;BME280;16044;52.726;-2.108;2023-02-25T13:44:11;101006.16;;;6.23;60.36
28935;BME280;16044;52.726;-2.108;2023-02-25T14:08:02;100994.28;;;6.95;60.73
28935;BME280;16044;52.726;-2.108;2023-02-25T14:14:07;100993.69;;;6.62;61.06
28935;BME280;16044;52.726;-2.108;2023-02-25T14:26:14;100996.97;;;6.86;61.22
28935;BME280;16044;52.726;-2.108;2023-02-25T14:29:03;101003.06;;;6.97;58.32
28935;BME280;16044;52.726;-2.108;2023-02-25T14:38:06;101020.09;;;6.88;58.94
28935;BME280;16044;52.726;-2.108;2023-02-25T14:43:51;101015.81;;;6.66;60.75
28935;BME280;16044;52.726;-2.108;2023-02-25T14:46:30;101027.56;;;6.65;61.62
28935;BME280;16044;52.726;-2.108;2023-02-25T14:49:09;101027.97;;;6.60;62.99
28935;BME280;16044;52.726;-2.108;2023-02-25T14:52:10;101039.16;;;6.56;64.50
28935;BME280;16044;52.726;-2.108;2023-02-25T15:20:54;101057.38;;;6.42;65.46
28935;BME280;16044;52.726;-2.108;2023-02-25T15:23:40;101060.50;;;6.38;65.40
28935;BME280;16044;52.726;-2.108;2023-02-25T15:28:52;101073.13;;;6.37;66.48
28935;BME280;16044;52.726;-2.108;2023-02-25T15:31:39;101075.63;;;6.29;66.81
28935;BME280;16044;52.726;-2.108;2023-02-25T15:34:30;101074.19;;;6.25;66.88
28935;BME280;16044;52.726;-2.108;2023-02-25T15:37:19;101063.25;;;6.17;67.20
28935;BME280;16044;52.726;-2.108;2023-02-25T15:39:51;101067.19;;;6.13;67.54
28935;BME280;16044;52.726;-2.108;2023-02-25T15:42:58;101067.72;;;6.07;67.36
28935;BME280;16044;52.726;-2.108;2023-02-25T15:58:52;101053.81;;;6.01;66.96
28935;BME280;16044;52.726;-2.108;2023-02-25T16:03:49;101058.44;;;6.20;67.53
28935;BME280;16044;52.726;-2.108;2023-02-25T16:06:31;101061.97;;;6.21;67.44
28935;BME280;16044;52.726;-2.108;2023-02-25T16:09:09;101059.88;;;6.24;67.22
28935;BME280;16044;52.726;-2.108;2023-02-25T16:11:50;101072.63;;;6.22;67.78
28935;BME280;16044;52.726;-2.108;2023-02-25T16:14:23;101078.22;;;6.10;67.60
28935;BME280;16044;52.726;-2.108;2023-02-25T16:17:04;101083.84;;;6.07;67.40
28935;BME280;16044;52.726;-2.108;2023-02-25T16:19:37;101086.75;;;5.94;68.02
28935;BME280;16044;52.726;-2.108;2023-02-25T16:24:50;101095.25;;;5.78;68.85
28935;BME280;16044;52.726;-2.108;2023-02-25T16:27:37;101088.44;;;5.74;69.30
28935;BME280;16044;52.726;-2.108;2023-02-25T16:30:28;101090.28;;;5.73;69.79
28935;BME280;16044;52.726;-2.108;2023-02-25T16:33:20;101091.66;;;5.68;70.31
28935;BME280;16044;52.726;-2.108;2023-02-25T16:41:39;101095.66;;;5.73;70.51
28935;BME280;16044;52.726;-2.108;2023-02-25T16:44:07;101102.00;;;5.72;70.51
28935;BME280;16044;52.726;-2.108;2023-02-25T16:46:36;101095.91;;;5.70;70.55
28935;BME280;16044;52.726;-2.108;2023-02-25T16:49:15;101097.75;;;5.70;69.66
28935;BME280;16044;52.726;-2.108;2023-02-25T16:51:46;101096.03;;;5.69;69.91
28935;BME280;16044;52.726;-2.108;2023-02-25T16:54:18;101100.69;;;5.66;69.51
28935;BME280;16044;52.726;-2.108;2023-02-25T16:56:52;101105.94;;;5.68;69.25
28935;BME280;16044;52.726;-2.108;2023-02-25T16:59:22;101107.06;;;5.65;69.90
28935;BME280;16044;52.726;-2.108;2023-02-25T17:01:55;101105.22;;;5.66;70.38
28935;BME280;16044;52.726;-2.108;2023-02-25T17:05:08;101101.94;;;5.62;70.88
28935;BME280;16044;52.726;-2.108;2023-02-25T17:10:00;101103.78;;;5.62;71.10
28935;BME280;16044;52.726;-2.108;2023-02-25T17:12:38;101110.13;;;5.61;71.21